sensor_id;sensor_type;location;lat;lon;timestamp;P1;durP1;ratioP1;P2;durP2;ratioP2
6207;SDS011;3137;51.550;7.060;2023-07-31T00:02:13;1.70;;;1.70;;
6207;SDS011;3137;51.550;7.060;2023-07-31T00:04:40;1.50;;;1.50;;
6207;SDS011;3137;51.550;7.060;2023-07-31T00:07:06;2.17;;;2.17;;
6207;SDS011;3137;51.550;7.060;2023-07-31T00:09:33;2.13;;;2.10;;
6207;SDS011;3137;51.550;7.060;2023-07-31T00:12:00;2.07;;;2.07;;
6207;SDS011;3137;51.550;7.060;2023-07-31T00:14:26;3.63;;;3.43;;
6207;SDS011;3137;51.550;7.060;2023-07-31T00:16:52;3.27;;;3.17;;
6207;SDS011;3137;51.550;7.060;2023-07-31T00:19:19;4.53;;;4.30;;
6207;SDS011;3137;51.550;7.060;2023-07-31T00:21:45;4.23;;;4.07;;
6207;SDS011;3137;51.550;7.060;2023-07-31T00:24:12;8.43;;;4.37;;
6207;SDS011;3137;51.550;7.060;2023-07-31T00:26:38;7.20;;;5.27;;
6207;SDS011;3137;51.550;7.060;2023-07-31T00:29:05;5.27;;;4.87;;
6207;SDS011;3137;51.550;7.060;2023-07-31T00:31:31;7.80;;;4.60;;
6207;SDS011;3137;51.550;7.060;2023-07-31T00:33:58;6.93;;;6.03;;
6207;SDS011;3137;51.550;7.060;2023-07-31T00:36:24;6.37;;;5.57;;
6207;SDS011;3137;51.550;7.060;2023-07-31T00:38:51;4.60;;;4.20;;
6207;SDS011;3137;51.550;7.060;2023-07-31T00:41:17;6.43;;;5.40;;
6207;SDS011;3137;51.550;7.060;2023-07-31T00:43:44;8.73;;;5.40;;
6207;SDS011;3137;51.550;7.060;2023-07-31T00:46:10;6.97;;;6.27;;
6207;SDS011;3137;51.550;7.060;2023-07-31T00:48:37;10.47;;;4.90;;
6207;SDS011;3137;51.550;7.060;2023-07-31T00:51:05;9.77;;;5.13;;
6207;SDS011;3137;51.550;7.060;2023-07-31T00:53:33;12.23;;;6.97;;
6207;SDS011;3137;51.550;7.060;2023-07-31T00:56:00;10.50;;;6.57;;
6207;SDS011;3137;51.550;7.060;2023-07-31T00:58:27;9.63;;;6.60;;
6207;SDS011;3137;51.550;7.060;2023-07-31T01:00:53;10.67;;;6.17;;
6207;SDS011;3137;51.550;7.060;2023-07-31T01:03:20;16.80;;;6.67;;
6207;SDS011;3137;51.550;7.060;2023-07-31T01:08:32;8.90;;;6.13;;
6207;SDS011;3137;51.550;7.060;2023-07-31T01:11:07;6.97;;;6.13;;
6207;SDS011;3137;51.550;7.060;2023-07-31T01:13:42;14.20;;;5.73;;
6207;SDS011;3137;51.550;7.060;2023-07-31T01:16:10;11.03;;;6.60;;
6207;SDS011;3137;51.550;7.060;2023-07-31T01:18:37;9.60;;;5.73;;
6207;SDS011;3137;51.550;7.060;2023-07-31T01:21:06;21.50;;;6.77;;
6207;SDS011;3137;51.550;7.060;2023-07-31T01:23:51;7.57;;;5.87;;
6207;SDS011;3137;51.550;7.060;2023-07-31T01:26:36;14.47;;;5.70;;
6207;SDS011;3137;51.550;7.060;2023-07-31T01:29:07;15.77;;;4.97;;
6207;SDS011;3137;51.550;7.060;2023-07-31T01:31:40;12.50;;;4.83;;
6207;SDS011;3137;51.550;7.060;2023-07-31T01:34:09;9.70;;;4.60;;
6207;SDS011;3137;51.550;7.060;2023-07-31T01:36:37;9.17;;;5.13;;
6207;SDS011;3137;51.550;7.060;2023-07-31T01:39:04;10.80;;;5.23;;
6207;SDS011;3137;51.550;7.060;2023-07-31T01:41:31;8.43;;;5.53;;
6207;SDS011;3137;51.550;7.060;2023-07-31T01:43:57;13.93;;;5.20;;
6207;SDS011;3137;51.550;7.060;2023-07-31T01:46:24;6.63;;;4.70;;
6207;SDS011;3137;51.550;7.060;2023-07-31T01:48:50;11.60;;;5.00;;
6207;SDS011;3137;51.550;7.060;2023-07-31T01:51:18;7.03;;;5.47;;
6207;SDS011;3137;51.550;7.060;2023-07-31T01:53:44;9.07;;;4.63;;
6207;SDS011;3137;51.550;7.060;2023-07-31T01:56:11;15.53;;;4.80;;
6207;SDS011;3137;51.550;7.060;2023-07-31T01:58:37;12.20;;;4.93;;
6207;SDS011;3137;51.550;7.060;2023-07-31T02:01:04;9.83;;;4.67;;
6207;SDS011;3137;51.550;7.060;2023-07-31T02:03:33;6.20;;;3.90;;
6207;SDS011;3137;51.550;7.060;2023-07-31T02:05:59;10.33;;;4.73;;
6207;SDS011;3137;51.550;7.060;2023-07-31T02:08:26;11.27;;;4.57;;
6207;SDS011;3137;51.550;7.060;2023-07-31T02:10:53;5.93;;;4.63;;
6207;SDS011;3137;51.550;7.060;2023-07-31T02:13:19;4.93;;;4.27;;
6207;SDS011;3137;51.550;7.060;2023-07-31T02:15:46;14.83;;;4.80;;
6207;SDS011;3137;51.550;7.060;2023-07-31T02:18:12;6.90;;;4.53;;
6207;SDS011;3137;51.550;7.060;2023-07-31T02:20:39;9.30;;;4.57;;
6207;SDS011;3137;51.550;7.060;2023-07-31T02:23:05;12.97;;;4.43;;
6207;SDS011;3137;51.550;7.060;2023-07-31T02:25:32;10.87;;;5.10;;
6207;SDS011;3137;51.550;7.060;2023-07-31T02:27:58;7.33;;;4.50;;
6207;SDS011;3137;51.550;7.060;2023-07-31T02:30:25;10.87;;;4.60;;
6207;SDS011;3137;51.550;7.060;2023-07-31T02:32:51;6.33;;;4.20;;
6207;SDS011;3137;51.550;7.060;2023-07-31T02:35:17;6.13;;;4.27;;
6207;SDS011;3137;51.550;7.060;2023-07-31T02:37:45;6.87;;;4.20;;
6207;SDS011;3137;51.550;7.060;2023-07-31T02:40:12;4.83;;;4.53;;
6207;SDS011;3137;51.550;7.060;2023-07-31T02:42:38;9.30;;;4.97;;
6207;SDS011;3137;51.550;7.060;2023-07-31T02:45:05;12.43;;;4.77;;
6207;SDS011;3137;51.550;7.060;2023-07-31T02:47:32;9.00;;;4.33;;
6207;SDS011;3137;51.550;7.060;2023-07-31T02:49:58;7.03;;;4.17;;
6207;SDS011;3137;51.550;7.060;2023-07-31T02:52:26;8.50;;;5.10;;
6207;SDS011;3137;51.550;7.060;2023-07-31T02:54:52;13.40;;;4.47;;
6207;SDS011;3137;51.550;7.060;2023-07-31T02:57:18;8.80;;;4.50;;
6207;SDS011;3137;51.550;7.060;2023-07-31T02:59:45;6.33;;;4.57;;
6207;SDS011;3137;51.550;7.060;2023-07-31T03:02:11;7.73;;;5.70;;
6207;SDS011;3137;51.550;7.060;2023-07-31T03:04:39;8.10;;;5.10;;
6207;SDS011;3137;51.550;7.060;2023-07-31T03:07:06;19.80;;;4.27;;
6207;SDS011;3137;51.550;7.060;2023-07-31T03:09:32;12.40;;;4.70;;
6207;SDS011;3137;51.550;7.060;2023-07-31T03:11:58;10.57;;;5.10;;
6207;SDS011;3137;51.550;7.060;2023-07-31T03:14:25;6.20;;;4.60;;
6207;SDS011;3137;51.550;7.060;2023-07-31T03:16:53;6.57;;;4.43;;
6207;SDS011;3137;51.550;7.060;2023-07-31T03:19:19;7.77;;;4.30;;
6207;SDS011;3137;51.550;7.060;2023-07-31T03:21:46;8.17;;;4.57;;
6207;SDS011;3137;51.550;7.060;2023-07-31T03:24:13;5.20;;;4.50;;
6207;SDS011;3137;51.550;7.060;2023-07-31T03:26:39;6.50;;;4.57;;
6207;SDS011;3137;51.550;7.060;2023-07-31T03:29:07;14.60;;;5.40;;
6207;SDS011;3137;51.550;7.060;2023-07-31T03:31:34;17.97;;;5.00;;
6207;SDS011;3137;51.550;7.060;2023-07-31T03:34:01;6.57;;;5.37;;
6207;SDS011;3137;51.550;7.060;2023-07-31T03:36:29;10.47;;;4.43;;
6207;SDS011;3137;51.550;7.060;2023-07-31T03:38:55;11.43;;;4.60;;
6207;SDS011;3137;51.550;7.060;2023-07-31T03:41:22;6.50;;;5.10;;
6207;SDS011;3137;51.550;7.060;2023-07-31T03:43:49;11.17;;;5.33;;
6207;SDS011;3137;51.550;7.060;2023-07-31T03:46:23;9.00;;;4.17;;
6207;SDS011;3137;51.550;7.060;2023-07-31T03:48:50;10.30;;;4.93;;
6207;SDS011;3137;51.550;7.060;2023-07-31T03:51:17;14.50;;;5.07;;
6207;SDS011;3137;51.550;7.060;2023-07-31T03:53:43;9.33;;;4.83;;
6207;SDS011;3137;51.550;7.060;2023-07-31T03:56:10;5.87;;;4.53;;
6207;SDS011;3137;51.550;7.060;2023-07-31T03:58:37;8.37;;;5.47;;
6207;SDS011;3137;51.550;7.060;2023-07-31T04:01:03;9.77;;;4.23;;
6207;SDS011;3137;51.550;7.060;2023-07-31T04:03:30;12.57;;;4.77;;
6207;SDS011;3137;51.550;7.060;2023-07-31T04:05:56;11.13;;;6.17;;
6207;SDS011;3137;51.550;7.060;2023-07-31T04:08:23;14.13;;;5.03;;
6207;SDS011;3137;51.550;7.060;2023-07-31T04:10:50;9.00;;;4.57;;
6207;SDS011;3137;51.550;7.060;2023-07-31T04:13:16;8.27;;;4.77;;
6207;SDS011;3137;51.550;7.060;2023-07-31T04:15:47;9.93;;;4.60;;
6207;SDS011;3137;51.550;7.060;2023-07-31T04:18:15;6.90;;;3.90;;
6207;SDS011;3137;51.550;7.060;2023-07-31T04:20:41;13.27;;;5.70;;
6207;SDS011;3137;51.550;7.060;2023-07-31T04:23:07;11.70;;;4.80;;
6207;SDS011;3137;51.550;7.060;2023-07-31T04:25:34;11.83;;;5.53;;
6207;SDS011;3137;51.550;7.060;2023-07-31T04:28:01;8.20;;;5.00;;
6207;SDS011;3137;51.550;7.060;2023-07-31T04:30:27;12.63;;;5.80;;
6207;SDS011;3137;51.550;7.060;2023-07-31T04:32:54;7.07;;;4.03;;
6207;SDS011;3137;51.550;7.060;2023-07-31T04:35:21;11.00;;;4.40;;
6207;SDS011;3137;51.550;7.060;2023-07-31T04:37:47;6.73;;;4.90;;
6207;SDS011;3137;51.550;7.060;2023-07-31T04:40:15;10.13;;;5.10;;
6207;SDS011;3137;51.550;7.060;2023-07-31T04:42:42;5.37;;;4.93;;
6207;SDS011;3137;51.550;7.060;2023-07-31T04:45:08;16.60;;;6.07;;
6207;SDS011;3137;51.550;7.060;2023-07-31T04:47:35;4.90;;;4.50;;
6207;SDS011;3137;51.550;7.060;2023-07-31T04:50:02;10.50;;;5.57;;
6207;SDS011;3137;51.550;7.060;2023-07-31T04:52:28;12.70;;;5.37;;
6207;SDS011;3137;51.550;7.060;2023-07-31T04:54:55;14.40;;;5.50;;
6207;SDS011;3137;51.550;7.060;2023-07-31T04:57:21;10.00;;;5.47;;
6207;SDS011;3137;51.550;7.060;2023-07-31T04:59:48;11.03;;;5.13;;
6207;SDS011;3137;51.550;7.060;2023-07-31T05:02:16;8.23;;;6.17;;
6207;SDS011;3137;51.550;7.060;2023-07-31T05:04:43;17.23;;;5.63;;
6207;SDS011;3137;51.550;7.060;2023-07-31T05:07:09;8.70;;;7.07;;
6207;SDS011;3137;51.550;7.060;2023-07-31T05:09:35;9.50;;;5.83;;
6207;SDS011;3137;51.550;7.060;2023-07-31T05:12:04;17.73;;;6.63;;
6207;SDS011;3137;51.550;7.060;2023-07-31T05:14:31;11.23;;;6.27;;
6207;SDS011;3137;51.550;7.060;2023-07-31T05:16:57;10.40;;;6.10;;
6207;SDS011;3137;51.550;7.060;2023-07-31T05:19:24;10.77;;;5.20;;
6207;SDS011;3137;51.550;7.060;2023-07-31T05:21:50;8.73;;;5.97;;
6207;SDS011;3137;51.550;7.060;2023-07-31T05:24:17;8.57;;;5.53;;
6207;SDS011;3137;51.550;7.060;2023-07-31T05:26:43;5.97;;;5.63;;
6207;SDS011;3137;51.550;7.060;2023-07-31T05:29:09;8.37;;;5.90;;
6207;SDS011;3137;51.550;7.060;2023-07-31T05:31:36;11.90;;;5.33;;
6207;SDS011;3137;51.550;7.060;2023-07-31T05:34:04;5.83;;;5.50;;
6207;SDS011;3137;51.550;7.060;2023-07-31T05:36:30;6.17;;;5.77;;
6207;SDS011;3137;51.550;7.060;2023-07-31T05:38:57;5.97;;;5.40;;
6207;SDS011;3137;51.550;7.060;2023-07-31T05:41:23;11.83;;;5.47;;
6207;SDS011;3137;51.550;7.060;2023-07-31T05:43:50;5.50;;;5.00;;
6207;SDS011;3137;51.550;7.060;2023-07-31T05:46:17;9.40;;;5.00;;
6207;SDS011;3137;51.550;7.060;2023-07-31T05:48:44;5.80;;;5.33;;
6207;SDS011;3137;51.550;7.060;2023-07-31T05:51:10;19.80;;;5.53;;
6207;SDS011;3137;51.550;7.060;2023-07-31T05:53:37;8.03;;;4.57;;
6207;SDS011;3137;51.550;7.060;2023-07-31T05:56:06;10.13;;;4.90;;
6207;SDS011;3137;51.550;7.060;2023-07-31T05:58:33;7.43;;;5.70;;
6207;SDS011;3137;51.550;7.060;2023-07-31T06:00:59;8.50;;;6.10;;
6207;SDS011;3137;51.550;7.060;2023-07-31T06:03:26;10.43;;;6.00;;
6207;SDS011;3137;51.550;7.060;2023-07-31T06:05:52;7.70;;;6.00;;
6207;SDS011;3137;51.550;7.060;2023-07-31T06:08:19;11.97;;;6.83;;
6207;SDS011;3137;51.550;7.060;2023-07-31T06:10:46;13.17;;;6.80;;
6207;SDS011;3137;51.550;7.060;2023-07-31T06:13:12;7.43;;;6.60;;
6207;SDS011;3137;51.550;7.060;2023-07-31T06:15:39;9.60;;;6.33;;
6207;SDS011;3137;51.550;7.060;2023-07-31T06:18:06;6.43;;;5.60;;
6207;SDS011;3137;51.550;7.060;2023-07-31T06:20:34;8.43;;;6.60;;
6207;SDS011;3137;51.550;7.060;2023-07-31T06:23:00;10.37;;;7.13;;
6207;SDS011;3137;51.550;7.060;2023-07-31T06:25:27;7.97;;;7.17;;
6207;SDS011;3137;51.550;7.060;2023-07-31T06:27:53;10.77;;;7.37;;
6207;SDS011;3137;51.550;7.060;2023-07-31T06:30:20;7.63;;;6.97;;
6207;SDS011;3137;51.550;7.060;2023-07-31T06:32:47;10.13;;;7.17;;
6207;SDS011;3137;51.550;7.060;2023-07-31T06:35:13;16.27;;;6.53;;
6207;SDS011;3137;51.550;7.060;2023-07-31T06:37:40;6.83;;;6.33;;
6207;SDS011;3137;51.550;7.060;2023-07-31T06:40:06;7.90;;;7.10;;
6207;SDS011;3137;51.550;7.060;2023-07-31T06:42:35;6.70;;;6.23;;
6207;SDS011;3137;51.550;7.060;2023-07-31T06:45:02;7.27;;;5.57;;
6207;SDS011;3137;51.550;7.060;2023-07-31T06:47:29;8.77;;;5.90;;
6207;SDS011;3137;51.550;7.060;2023-07-31T06:49:55;6.20;;;5.67;;
6207;SDS011;3137;51.550;7.060;2023-07-31T06:52:22;6.53;;;5.43;;
6207;SDS011;3137;51.550;7.060;2023-07-31T06:55:00;5.73;;;5.43;;
6207;SDS011;3137;51.550;7.060;2023-07-31T06:57:28;6.40;;;5.77;;
6207;SDS011;3137;51.550;7.060;2023-07-31T06:59:55;6.50;;;5.67;;
6207;SDS011;3137;51.550;7.060;2023-07-31T07:02:22;6.43;;;5.57;;
6207;SDS011;3137;51.550;7.060;2023-07-31T07:04:48;5.43;;;5.07;;
6207;SDS011;3137;51.550;7.060;2023-07-31T07:07:16;5.47;;;5.00;;
6207;SDS011;3137;51.550;7.060;2023-07-31T07:09:43;6.60;;;5.43;;
6207;SDS011;3137;51.550;7.060;2023-07-31T07:12:09;5.53;;;4.93;;
6207;SDS011;3137;51.550;7.060;2023-07-31T07:14:36;5.80;;;5.40;;
6207;SDS011;3137;51.550;7.060;2023-07-31T07:17:02;6.17;;;5.67;;
6207;SDS011;3137;51.550;7.060;2023-07-31T07:19:29;5.80;;;5.23;;
6207;SDS011;3137;51.550;7.060;2023-07-31T07:21:55;8.03;;;5.73;;
6207;SDS011;3137;51.550;7.060;2023-07-31T07:24:22;5.67;;;5.27;;
6207;SDS011;3137;51.550;7.060;2023-07-31T07:26:49;5.27;;;4.73;;
6207;SDS011;3137;51.550;7.060;2023-07-31T07:29:15;6.23;;;5.60;;
6207;SDS011;3137;51.550;7.060;2023-07-31T07:31:41;5.83;;;5.30;;
6207;SDS011;3137;51.550;7.060;2023-07-31T07:34:08;5.83;;;5.53;;
6207;SDS011;3137;51.550;7.060;2023-07-31T07:36:34;5.57;;;5.17;;
6207;SDS011;3137;51.550;7.060;2023-07-31T07:39:01;9.50;;;5.03;;
6207;SDS011;3137;51.550;7.060;2023-07-31T07:41:27;5.77;;;5.53;;
6207;SDS011;3137;51.550;7.060;2023-07-31T07:43:54;6.80;;;6.23;;
6207;SDS011;3137;51.550;7.060;2023-07-31T07:46:20;5.40;;;5.27;;
6207;SDS011;3137;51.550;7.060;2023-07-31T07:48:47;5.13;;;4.67;;
6207;SDS011;3137;51.550;7.060;2023-07-31T07:51:13;7.60;;;5.60;;
6207;SDS011;3137;51.550;7.060;2023-07-31T07:53:40;5.90;;;5.40;;
6207;SDS011;3137;51.550;7.060;2023-07-31T07:56:06;6.37;;;5.87;;
6207;SDS011;3137;51.550;7.060;2023-07-31T07:58:33;9.33;;;5.80;;
6207;SDS011;3137;51.550;7.060;2023-07-31T08:00:59;10.03;;;5.37;;
6207;SDS011;3137;51.550;7.060;2023-07-31T08:03:26;5.50;;;5.20;;
6207;SDS011;3137;51.550;7.060;2023-07-31T08:05:52;4.77;;;4.67;;
6207;SDS011;3137;51.550;7.060;2023-07-31T08:08:24;5.23;;;4.87;;
6207;SDS011;3137;51.550;7.060;2023-07-31T08:10:51;5.03;;;4.83;;
6207;SDS011;3137;51.550;7.060;2023-07-31T08:13:17;5.07;;;4.97;;
6207;SDS011;3137;51.550;7.060;2023-07-31T08:15:44;5.20;;;4.87;;
6207;SDS011;3137;51.550;7.060;2023-07-31T08:18:10;4.70;;;4.40;;
6207;SDS011;3137;51.550;7.060;2023-07-31T08:20:40;5.20;;;4.90;;
6207;SDS011;3137;51.550;7.060;2023-07-31T08:23:06;4.13;;;3.93;;
6207;SDS011;3137;51.550;7.060;2023-07-31T08:25:36;4.30;;;4.03;;
6207;SDS011;3137;51.550;7.060;2023-07-31T08:28:03;8.00;;;3.40;;
6207;SDS011;3137;51.550;7.060;2023-07-31T08:30:31;6.30;;;3.17;;
6207;SDS011;3137;51.550;7.060;2023-07-31T08:32:58;4.53;;;3.97;;
6207;SDS011;3137;51.550;7.060;2023-07-31T08:35:25;4.30;;;4.20;;
6207;SDS011;3137;51.550;7.060;2023-07-31T08:37:52;4.40;;;3.90;;
6207;SDS011;3137;51.550;7.060;2023-07-31T08:40:18;3.40;;;3.40;;
6207;SDS011;3137;51.550;7.060;2023-07-31T08:42:45;3.30;;;3.20;;
6207;SDS011;3137;51.550;7.060;2023-07-31T08:45:13;4.33;;;3.97;;
6207;SDS011;3137;51.550;7.060;2023-07-31T08:47:47;3.50;;;3.30;;
6207;SDS011;3137;51.550;7.060;2023-07-31T08:50:17;3.87;;;3.47;;
6207;SDS011;3137;51.550;7.060;2023-07-31T08:52:46;3.37;;;3.27;;
6207;SDS011;3137;51.550;7.060;2023-07-31T08:55:14;5.53;;;3.60;;
6207;SDS011;3137;51.550;7.060;2023-07-31T08:57:40;3.93;;;3.27;;
6207;SDS011;3137;51.550;7.060;2023-07-31T09:00:08;3.67;;;3.57;;
6207;SDS011;3137;51.550;7.060;2023-07-31T09:02:46;4.80;;;4.60;;
6207;SDS011;3137;51.550;7.060;2023-07-31T09:05:19;3.60;;;3.43;;
6207;SDS011;3137;51.550;7.060;2023-07-31T09:07:48;5.00;;;3.67;;
6207;SDS011;3137;51.550;7.060;2023-07-31T09:10:16;4.33;;;4.13;;
6207;SDS011;3137;51.550;7.060;2023-07-31T09:12:43;6.93;;;4.87;;
6207;SDS011;3137;51.550;7.060;2023-07-31T09:15:10;3.70;;;3.60;;
6207;SDS011;3137;51.550;7.060;2023-07-31T09:18:00;3.77;;;3.57;;
6207;SDS011;3137;51.550;7.060;2023-07-31T09:20:28;4.33;;;4.00;;
6207;SDS011;3137;51.550;7.060;2023-07-31T09:22:55;6.87;;;4.10;;
6207;SDS011;3137;51.550;7.060;2023-07-31T09:25:25;4.63;;;4.23;;
6207;SDS011;3137;51.550;7.060;2023-07-31T09:27:59;3.83;;;3.70;;
6207;SDS011;3137;51.550;7.060;2023-07-31T09:30:27;4.50;;;4.20;;
6207;SDS011;3137;51.550;7.060;2023-07-31T09:33:00;3.10;;;3.00;;
6207;SDS011;3137;51.550;7.060;2023-07-31T09:35:30;3.37;;;3.30;;
6207;SDS011;3137;51.550;7.060;2023-07-31T09:37:59;3.70;;;3.17;;
6207;SDS011;3137;51.550;7.060;2023-07-31T09:42:57;4.00;;;3.97;;
6207;SDS011;3137;51.550;7.060;2023-07-31T09:45:25;3.20;;;3.00;;
6207;SDS011;3137;51.550;7.060;2023-07-31T09:48:09;2.47;;;2.47;;
6207;SDS011;3137;51.550;7.060;2023-07-31T09:50:37;3.40;;;3.10;;
6207;SDS011;3137;51.550;7.060;2023-07-31T09:53:06;3.13;;;2.93;;
6207;SDS011;3137;51.550;7.060;2023-07-31T09:55:33;3.17;;;3.17;;
6207;SDS011;3137;51.550;7.060;2023-07-31T09:58:04;2.70;;;2.70;;
6207;SDS011;3137;51.550;7.060;2023-07-31T10:00:32;2.93;;;2.83;;
6207;SDS011;3137;51.550;7.060;2023-07-31T10:03:00;3.87;;;3.40;;
6207;SDS011;3137;51.550;7.060;2023-07-31T10:05:38;2.87;;;2.77;;
6207;SDS011;3137;51.550;7.060;2023-07-31T10:08:09;8.93;;;3.50;;
6207;SDS011;3137;51.550;7.060;2023-07-31T10:10:44;3.90;;;2.97;;
6207;SDS011;3137;51.550;7.060;2023-07-31T10:13:12;3.77;;;3.67;;
6207;SDS011;3137;51.550;7.060;2023-07-31T10:15:40;2.73;;;2.53;;
6207;SDS011;3137;51.550;7.060;2023-07-31T10:18:10;3.37;;;3.23;;
6207;SDS011;3137;51.550;7.060;2023-07-31T10:20:38;2.93;;;2.93;;
6207;SDS011;3137;51.550;7.060;2023-07-31T10:23:06;6.47;;;3.07;;
6207;SDS011;3137;51.550;7.060;2023-07-31T10:25:33;2.80;;;2.60;;
6207;SDS011;3137;51.550;7.060;2023-07-31T10:28:00;3.30;;;3.10;;
6207;SDS011;3137;51.550;7.060;2023-07-31T10:30:30;3.90;;;3.53;;
6207;SDS011;3137;51.550;7.060;2023-07-31T10:33:00;3.37;;;3.27;;
6207;SDS011;3137;51.550;7.060;2023-07-31T10:35:27;6.23;;;3.20;;
6207;SDS011;3137;51.550;7.060;2023-07-31T10:37:54;8.17;;;4.63;;
6207;SDS011;3137;51.550;7.060;2023-07-31T10:40:24;5.30;;;4.83;;
6207;SDS011;3137;51.550;7.060;2023-07-31T10:42:53;4.97;;;4.87;;
6207;SDS011;3137;51.550;7.060;2023-07-31T10:45:32;4.70;;;4.70;;
6207;SDS011;3137;51.550;7.060;2023-07-31T10:48:04;6.67;;;6.30;;
6207;SDS011;3137;51.550;7.060;2023-07-31T10:50:54;5.67;;;5.57;;
6207;SDS011;3137;51.550;7.060;2023-07-31T10:53:23;6.33;;;5.93;;
6207;SDS011;3137;51.550;7.060;2023-07-31T10:55:59;7.57;;;7.10;;
6207;SDS011;3137;51.550;7.060;2023-07-31T10:58:27;7.43;;;6.77;;
6207;SDS011;3137;51.550;7.060;2023-07-31T11:00:55;7.33;;;7.03;;
6207;SDS011;3137;51.550;7.060;2023-07-31T11:03:25;6.93;;;6.43;;
6207;SDS011;3137;51.550;7.060;2023-07-31T11:06:02;17.53;;;7.20;;
6207;SDS011;3137;51.550;7.060;2023-07-31T11:08:31;7.70;;;7.13;;
6207;SDS011;3137;51.550;7.060;2023-07-31T11:13:28;8.00;;;7.47;;
6207;SDS011;3137;51.550;7.060;2023-07-31T11:15:55;6.87;;;6.47;;
6207;SDS011;3137;51.550;7.060;2023-07-31T11:18:22;7.13;;;6.80;;
6207;SDS011;3137;51.550;7.060;2023-07-31T11:20:49;7.87;;;7.13;;
6207;SDS011;3137;51.550;7.060;2023-07-31T11:23:16;6.03;;;5.90;;
6207;SDS011;3137;51.550;7.060;2023-07-31T11:25:44;8.50;;;6.57;;
6207;SDS011;3137;51.550;7.060;2023-07-31T11:28:15;6.03;;;5.73;;
6207;SDS011;3137;51.550;7.060;2023-07-31T11:30:43;9.70;;;6.20;;
6207;SDS011;3137;51.550;7.060;2023-07-31T11:33:11;6.30;;;5.70;;
6207;SDS011;3137;51.550;7.060;2023-07-31T11:35:44;5.20;;;4.90;;
6207;SDS011;3137;51.550;7.060;2023-07-31T11:38:12;5.50;;;5.23;;
6207;SDS011;3137;51.550;7.060;2023-07-31T11:40:49;8.33;;;5.57;;
6207;SDS011;3137;51.550;7.060;2023-07-31T11:43:15;5.03;;;4.80;;
6207;SDS011;3137;51.550;7.060;2023-07-31T11:45:46;4.80;;;4.57;;
6207;SDS011;3137;51.550;7.060;2023-07-31T11:50:49;4.93;;;4.73;;
6207;SDS011;3137;51.550;7.060;2023-07-31T11:53:17;3.83;;;3.73;;
6207;SDS011;3137;51.550;7.060;2023-07-31T11:55:48;4.17;;;3.97;;
6207;SDS011;3137;51.550;7.060;2023-07-31T11:58:15;4.00;;;3.70;;
6207;SDS011;3137;51.550;7.060;2023-07-31T12:00:42;4.40;;;4.20;;
6207;SDS011;3137;51.550;7.060;2023-07-31T12:03:09;9.13;;;4.00;;
6207;SDS011;3137;51.550;7.060;2023-07-31T12:05:37;4.83;;;4.63;;
6207;SDS011;3137;51.550;7.060;2023-07-31T12:08:11;5.40;;;5.20;;
6207;SDS011;3137;51.550;7.060;2023-07-31T12:10:38;5.83;;;5.33;;
6207;SDS011;3137;51.550;7.060;2023-07-31T12:13:10;6.13;;;5.63;;
6207;SDS011;3137;51.550;7.060;2023-07-31T12:15:46;8.40;;;5.13;;
6207;SDS011;3137;51.550;7.060;2023-07-31T12:18:13;6.73;;;5.60;;
6207;SDS011;3137;51.550;7.060;2023-07-31T12:20:44;5.70;;;5.30;;
6207;SDS011;3137;51.550;7.060;2023-07-31T12:23:13;4.73;;;4.53;;
6207;SDS011;3137;51.550;7.060;2023-07-31T12:26:33;6.43;;;5.97;;
6207;SDS011;3137;51.550;7.060;2023-07-31T12:28:47;9.07;;;6.33;;
6207;SDS011;3137;51.550;7.060;2023-07-31T12:31:20;6.53;;;6.20;;
6207;SDS011;3137;51.550;7.060;2023-07-31T12:33:48;6.50;;;6.27;;
6207;SDS011;3137;51.550;7.060;2023-07-31T12:36:18;7.07;;;6.67;;
6207;SDS011;3137;51.550;7.060;2023-07-31T12:38:47;12.00;;;6.63;;
6207;SDS011;3137;51.550;7.060;2023-07-31T12:41:13;7.43;;;6.93;;
6207;SDS011;3137;51.550;7.060;2023-07-31T12:43:41;6.67;;;6.47;;
6207;SDS011;3137;51.550;7.060;2023-07-31T12:46:08;7.23;;;6.90;;
6207;SDS011;3137;51.550;7.060;2023-07-31T12:48:36;5.80;;;5.53;;
6207;SDS011;3137;51.550;7.060;2023-07-31T12:51:04;6.47;;;6.27;;
6207;SDS011;3137;51.550;7.060;2023-07-31T12:53:30;6.70;;;5.93;;
6207;SDS011;3137;51.550;7.060;2023-07-31T12:55:57;5.37;;;5.17;;
6207;SDS011;3137;51.550;7.060;2023-07-31T12:58:23;5.50;;;5.30;;
6207;SDS011;3137;51.550;7.060;2023-07-31T13:00:51;6.63;;;4.80;;
6207;SDS011;3137;51.550;7.060;2023-07-31T13:03:17;4.30;;;4.20;;
6207;SDS011;3137;51.550;7.060;2023-07-31T13:05:44;3.73;;;3.63;;
6207;SDS011;3137;51.550;7.060;2023-07-31T13:08:10;3.93;;;3.80;;
6207;SDS011;3137;51.550;7.060;2023-07-31T13:10:38;3.90;;;3.57;;
6207;SDS011;3137;51.550;7.060;2023-07-31T13:13:04;3.60;;;3.30;;
6207;SDS011;3137;51.550;7.060;2023-07-31T13:15:31;4.20;;;3.90;;
6207;SDS011;3137;51.550;7.060;2023-07-31T13:17:57;3.77;;;3.47;;
6207;SDS011;3137;51.550;7.060;2023-07-31T13:20:24;3.80;;;3.53;;
6207;SDS011;3137;51.550;7.060;2023-07-31T13:22:50;4.10;;;3.80;;
6207;SDS011;3137;51.550;7.060;2023-07-31T13:25:17;3.50;;;3.40;;
6207;SDS011;3137;51.550;7.060;2023-07-31T13:27:43;3.17;;;2.83;;
6207;SDS011;3137;51.550;7.060;2023-07-31T13:30:10;3.30;;;2.97;;
6207;SDS011;3137;51.550;7.060;2023-07-31T13:32:36;4.10;;;3.80;;
6207;SDS011;3137;51.550;7.060;2023-07-31T13:35:08;4.40;;;4.20;;
6207;SDS011;3137;51.550;7.060;2023-07-31T13:37:35;4.73;;;4.53;;
6207;SDS011;3137;51.550;7.060;2023-07-31T13:40:02;4.43;;;4.33;;
6207;SDS011;3137;51.550;7.060;2023-07-31T13:42:31;4.07;;;4.03;;
6207;SDS011;3137;51.550;7.060;2023-07-31T13:44:58;8.77;;;3.63;;
6207;SDS011;3137;51.550;7.060;2023-07-31T13:47:24;3.10;;;3.10;;
6207;SDS011;3137;51.550;7.060;2023-07-31T13:49:50;3.23;;;3.03;;
6207;SDS011;3137;51.550;7.060;2023-07-31T13:52:17;3.10;;;3.10;;
6207;SDS011;3137;51.550;7.060;2023-07-31T13:54:43;3.30;;;3.30;;
6207;SDS011;3137;51.550;7.060;2023-07-31T13:57:10;4.00;;;3.90;;
6207;SDS011;3137;51.550;7.060;2023-07-31T13:59:36;3.37;;;3.37;;
6207;SDS011;3137;51.550;7.060;2023-07-31T14:02:03;3.67;;;3.57;;
6207;SDS011;3137;51.550;7.060;2023-07-31T14:04:30;3.83;;;3.53;;
6207;SDS011;3137;51.550;7.060;2023-07-31T14:06:56;3.90;;;3.40;;
6207;SDS011;3137;51.550;7.060;2023-07-31T14:09:23;3.30;;;3.30;;
6207;SDS011;3137;51.550;7.060;2023-07-31T14:11:50;3.57;;;3.47;;
6207;SDS011;3137;51.550;7.060;2023-07-31T14:14:16;3.93;;;3.80;;
6207;SDS011;3137;51.550;7.060;2023-07-31T14:16:44;3.40;;;3.33;;
6207;SDS011;3137;51.550;7.060;2023-07-31T14:19:11;4.40;;;4.00;;
6207;SDS011;3137;51.550;7.060;2023-07-31T14:21:38;5.13;;;4.40;;
6207;SDS011;3137;51.550;7.060;2023-07-31T14:24:04;5.17;;;4.83;;
6207;SDS011;3137;51.550;7.060;2023-07-31T14:26:31;7.37;;;4.30;;
6207;SDS011;3137;51.550;7.060;2023-07-31T14:28:57;4.40;;;4.30;;
6207;SDS011;3137;51.550;7.060;2023-07-31T14:31:24;4.63;;;4.33;;
6207;SDS011;3137;51.550;7.060;2023-07-31T14:33:51;7.03;;;4.13;;
6207;SDS011;3137;51.550;7.060;2023-07-31T14:36:17;4.73;;;4.40;;
6207;SDS011;3137;51.550;7.060;2023-07-31T14:38:44;4.47;;;4.30;;
6207;SDS011;3137;51.550;7.060;2023-07-31T14:41:10;5.00;;;4.80;;
6207;SDS011;3137;51.550;7.060;2023-07-31T14:43:37;4.00;;;3.70;;
6207;SDS011;3137;51.550;7.060;2023-07-31T14:46:04;4.27;;;4.17;;
6207;SDS011;3137;51.550;7.060;2023-07-31T14:48:31;4.20;;;4.10;;
6207;SDS011;3137;51.550;7.060;2023-07-31T14:50:58;3.80;;;3.70;;
6207;SDS011;3137;51.550;7.060;2023-07-31T14:53:24;4.60;;;3.93;;
6207;SDS011;3137;51.550;7.060;2023-07-31T14:55:51;5.67;;;4.63;;
6207;SDS011;3137;51.550;7.060;2023-07-31T14:58:17;7.17;;;5.47;;
6207;SDS011;3137;51.550;7.060;2023-07-31T15:00:44;5.33;;;4.17;;
6207;SDS011;3137;51.550;7.060;2023-07-31T15:03:10;5.37;;;4.70;;
6207;SDS011;3137;51.550;7.060;2023-07-31T15:05:37;4.43;;;4.20;;
6207;SDS011;3137;51.550;7.060;2023-07-31T15:08:04;4.00;;;3.90;;
6207;SDS011;3137;51.550;7.060;2023-07-31T15:10:31;3.97;;;3.77;;
6207;SDS011;3137;51.550;7.060;2023-07-31T15:12:57;7.83;;;3.70;;
6207;SDS011;3137;51.550;7.060;2023-07-31T15:15:24;4.23;;;4.00;;
6207;SDS011;3137;51.550;7.060;2023-07-31T15:17:51;3.87;;;3.70;;
6207;SDS011;3137;51.550;7.060;2023-07-31T15:20:18;4.60;;;4.40;;
6207;SDS011;3137;51.550;7.060;2023-07-31T15:22:44;5.27;;;4.73;;
6207;SDS011;3137;51.550;7.060;2023-07-31T15:25:10;4.93;;;4.47;;
6207;SDS011;3137;51.550;7.060;2023-07-31T15:27:37;6.77;;;4.27;;